Portada
METAR-TAF:

METAR-TAF

Aeroports :

New Smyrna Beach Municipal Airport

New Smyrna Beach, Florida, Estats Units d'Amèrica

latitud: 29-03-20N, longitud: 080-56-54W, altitud: 3 m

Observació

L'informe es va fer fa 4 hores i 21 minuts, a les 01:47 UTC
Vent 10 kt del Nord
Temperatura 28°C
Humitat 79%
Pressió 1014 hPa
Visibilitat: 16.1 km
Cel ennuvolat a una alçada de 2100 ft

METAR: KEVB 160147Z 36010KT 10SM BKN021 28/24 A2994 RMK LAST

Hora: 02:08 (06:08 UTC)


TAF: manca

Observacions i pronòstics meteorològics de més de 4000 aeroports (METAR i TAF).

Les estacions disponibles són els punts grocs i vermells al mapa.

Posi el ratolí al punt desitjat per veure el nom de l'estació.

Feu clic per veure les observacions i els pronòstics meteorològics.

Per canviar el mapa: feu clic els botons verds amb una creu de color negre per apropar; al botó verd amb un guió per allunyar la imatge; o en les fletxes verdes per a mapes adjacents.


METAR-TAF: